sensor_id;sensor_type;location;lat;lon;timestamp;P1;durP1;ratioP1;P2;durP2;ratioP2
7899;SDS011;3995;50.856;4.404;2023-05-09T00:01:35;8.30;;;5.23;;
7899;SDS011;3995;50.856;4.404;2023-05-09T00:04:04;6.47;;;5.10;;
7899;SDS011;3995;50.856;4.404;2023-05-09T00:06:31;5.50;;;4.60;;
7899;SDS011;3995;50.856;4.404;2023-05-09T00:08:58;8.20;;;5.93;;
7899;SDS011;3995;50.856;4.404;2023-05-09T00:11:25;6.03;;;4.93;;
7899;SDS011;3995;50.856;4.404;2023-05-09T00:13:52;10.90;;;4.93;;
7899;SDS011;3995;50.856;4.404;2023-05-09T00:16:19;7.10;;;5.57;;
7899;SDS011;3995;50.856;4.404;2023-05-09T00:18:49;7.70;;;4.53;;
7899;SDS011;3995;50.856;4.404;2023-05-09T00:21:16;7.50;;;6.00;;
7899;SDS011;3995;50.856;4.404;2023-05-09T00:23:43;7.60;;;5.10;;
7899;SDS011;3995;50.856;4.404;2023-05-09T00:26:12;5.73;;;4.73;;
7899;SDS011;3995;50.856;4.404;2023-05-09T00:28:39;7.47;;;5.27;;
7899;SDS011;3995;50.856;4.404;2023-05-09T00:31:06;10.60;;;5.30;;
7899;SDS011;3995;50.856;4.404;2023-05-09T00:33:33;8.23;;;4.83;;
7899;SDS011;3995;50.856;4.404;2023-05-09T00:36:02;9.70;;;4.40;;
7899;SDS011;3995;50.856;4.404;2023-05-09T00:38:29;5.50;;;5.00;;
7899;SDS011;3995;50.856;4.404;2023-05-09T00:40:56;8.90;;;4.93;;
7899;SDS011;3995;50.856;4.404;2023-05-09T00:43:24;7.03;;;4.73;;
7899;SDS011;3995;50.856;4.404;2023-05-09T00:45:51;6.63;;;4.90;;
7899;SDS011;3995;50.856;4.404;2023-05-09T00:48:18;5.40;;;4.20;;
7899;SDS011;3995;50.856;4.404;2023-05-09T00:50:47;6.13;;;5.20;;
7899;SDS011;3995;50.856;4.404;2023-05-09T00:53:18;7.97;;;5.37;;
7899;SDS011;3995;50.856;4.404;2023-05-09T00:55:45;10.93;;;5.70;;
7899;SDS011;3995;50.856;4.404;2023-05-09T00:58:13;7.53;;;4.73;;
7899;SDS011;3995;50.856;4.404;2023-05-09T01:00:40;6.00;;;5.07;;
7899;SDS011;3995;50.856;4.404;2023-05-09T01:03:07;5.70;;;4.50;;
7899;SDS011;3995;50.856;4.404;2023-05-09T01:05:37;5.90;;;4.57;;
7899;SDS011;3995;50.856;4.404;2023-05-09T01:08:12;7.10;;;4.77;;
7899;SDS011;3995;50.856;4.404;2023-05-09T01:10:49;8.27;;;4.53;;
7899;SDS011;3995;50.856;4.404;2023-05-09T01:13:23;6.03;;;5.13;;
7899;SDS011;3995;50.856;4.404;2023-05-09T01:15:57;8.00;;;4.87;;
7899;SDS011;3995;50.856;4.404;2023-05-09T01:18:32;5.40;;;4.30;;
7899;SDS011;3995;50.856;4.404;2023-05-09T01:21:09;7.37;;;5.60;;
7899;SDS011;3995;50.856;4.404;2023-05-09T01:23:47;6.27;;;4.77;;
7899;SDS011;3995;50.856;4.404;2023-05-09T01:26:42;5.83;;;4.63;;
7899;SDS011;3995;50.856;4.404;2023-05-09T01:29:19;8.40;;;4.57;;
7899;SDS011;3995;50.856;4.404;2023-05-09T01:31:57;7.20;;;4.73;;
7899;SDS011;3995;50.856;4.404;2023-05-09T01:34:26;9.40;;;5.10;;
7899;SDS011;3995;50.856;4.404;2023-05-09T01:36:56;6.57;;;5.17;;
7899;SDS011;3995;50.856;4.404;2023-05-09T01:39:26;8.00;;;4.57;;
7899;SDS011;3995;50.856;4.404;2023-05-09T01:41:55;5.37;;;4.63;;
7899;SDS011;3995;50.856;4.404;2023-05-09T01:44:27;8.87;;;4.30;;
7899;SDS011;3995;50.856;4.404;2023-05-09T01:46:59;8.43;;;5.30;;
7899;SDS011;3995;50.856;4.404;2023-05-09T01:49:28;7.20;;;4.73;;
7899;SDS011;3995;50.856;4.404;2023-05-09T01:51:58;8.30;;;4.80;;
7899;SDS011;3995;50.856;4.404;2023-05-09T01:54:29;5.83;;;4.73;;
7899;SDS011;3995;50.856;4.404;2023-05-09T01:56:58;8.20;;;4.20;;
7899;SDS011;3995;50.856;4.404;2023-05-09T01:59:27;6.73;;;4.97;;
7899;SDS011;3995;50.856;4.404;2023-05-09T02:01:57;11.30;;;4.97;;
7899;SDS011;3995;50.856;4.404;2023-05-09T02:04:24;7.83;;;5.27;;
7899;SDS011;3995;50.856;4.404;2023-05-09T02:06:53;6.23;;;4.73;;
7899;SDS011;3995;50.856;4.404;2023-05-09T02:09:22;7.70;;;5.13;;
7899;SDS011;3995;50.856;4.404;2023-05-09T02:11:49;5.20;;;4.40;;
7899;SDS011;3995;50.856;4.404;2023-05-09T02:14:17;6.87;;;4.90;;
7899;SDS011;3995;50.856;4.404;2023-05-09T02:16:45;6.60;;;5.40;;
7899;SDS011;3995;50.856;4.404;2023-05-09T02:19:13;5.03;;;4.17;;
7899;SDS011;3995;50.856;4.404;2023-05-09T02:21:40;5.53;;;4.40;;
7899;SDS011;3995;50.856;4.404;2023-05-09T02:24:08;5.87;;;4.70;;
7899;SDS011;3995;50.856;4.404;2023-05-09T02:26:35;7.83;;;4.70;;
7899;SDS011;3995;50.856;4.404;2023-05-09T02:29:05;7.73;;;4.70;;
7899;SDS011;3995;50.856;4.404;2023-05-09T02:31:33;8.20;;;5.27;;
7899;SDS011;3995;50.856;4.404;2023-05-09T02:34:02;8.00;;;4.27;;
7899;SDS011;3995;50.856;4.404;2023-05-09T02:36:30;7.93;;;5.03;;
7899;SDS011;3995;50.856;4.404;2023-05-09T02:38:58;7.90;;;4.50;;
7899;SDS011;3995;50.856;4.404;2023-05-09T02:41:26;6.37;;;4.57;;
7899;SDS011;3995;50.856;4.404;2023-05-09T02:43:53;5.30;;;4.37;;
7899;SDS011;3995;50.856;4.404;2023-05-09T02:46:20;10.17;;;5.63;;
7899;SDS011;3995;50.856;4.404;2023-05-09T02:48:47;5.60;;;4.10;;
7899;SDS011;3995;50.856;4.404;2023-05-09T02:51:17;6.47;;;4.40;;
7899;SDS011;3995;50.856;4.404;2023-05-09T02:53:44;8.73;;;4.60;;
7899;SDS011;3995;50.856;4.404;2023-05-09T02:56:12;10.60;;;5.33;;
7899;SDS011;3995;50.856;4.404;2023-05-09T02:58:39;7.70;;;4.70;;
7899;SDS011;3995;50.856;4.404;2023-05-09T03:01:06;9.30;;;4.13;;
7899;SDS011;3995;50.856;4.404;2023-05-09T03:03:34;8.50;;;5.30;;
7899;SDS011;3995;50.856;4.404;2023-05-09T03:06:01;8.90;;;5.37;;
7899;SDS011;3995;50.856;4.404;2023-05-09T03:08:30;10.40;;;4.90;;
7899;SDS011;3995;50.856;4.404;2023-05-09T03:10:57;5.60;;;4.47;;
7899;SDS011;3995;50.856;4.404;2023-05-09T03:13:24;8.10;;;5.67;;
7899;SDS011;3995;50.856;4.404;2023-05-09T03:15:51;7.13;;;5.37;;
7899;SDS011;3995;50.856;4.404;2023-05-09T03:18:18;7.47;;;5.70;;
7899;SDS011;3995;50.856;4.404;2023-05-09T03:20:45;7.67;;;5.60;;
7899;SDS011;3995;50.856;4.404;2023-05-09T03:23:12;8.37;;;5.50;;
7899;SDS011;3995;50.856;4.404;2023-05-09T03:25:41;10.13;;;6.20;;
7899;SDS011;3995;50.856;4.404;2023-05-09T03:28:08;7.50;;;4.80;;
7899;SDS011;3995;50.856;4.404;2023-05-09T03:30:35;7.00;;;4.90;;
7899;SDS011;3995;50.856;4.404;2023-05-09T03:33:02;11.07;;;5.90;;
7899;SDS011;3995;50.856;4.404;2023-05-09T03:35:30;10.80;;;5.10;;
7899;SDS011;3995;50.856;4.404;2023-05-09T03:37:57;6.20;;;5.20;;
7899;SDS011;3995;50.856;4.404;2023-05-09T03:40:24;11.20;;;5.60;;
7899;SDS011;3995;50.856;4.404;2023-05-09T03:42:53;7.50;;;6.17;;
7899;SDS011;3995;50.856;4.404;2023-05-09T03:45:20;9.53;;;5.73;;
7899;SDS011;3995;50.856;4.404;2023-05-09T03:47:47;7.63;;;5.80;;
7899;SDS011;3995;50.856;4.404;2023-05-09T03:50:14;6.73;;;5.20;;
7899;SDS011;3995;50.856;4.404;2023-05-09T03:52:41;6.00;;;4.93;;
7899;SDS011;3995;50.856;4.404;2023-05-09T03:55:09;5.70;;;5.10;;
7899;SDS011;3995;50.856;4.404;2023-05-09T03:57:36;8.70;;;5.40;;
7899;SDS011;3995;50.856;4.404;2023-05-09T04:00:06;7.00;;;4.73;;
7899;SDS011;3995;50.856;4.404;2023-05-09T04:02:34;12.60;;;5.90;;
7899;SDS011;3995;50.856;4.404;2023-05-09T04:05:01;17.87;;;6.63;;
7899;SDS011;3995;50.856;4.404;2023-05-09T04:07:28;7.60;;;5.90;;
7899;SDS011;3995;50.856;4.404;2023-05-09T04:09:56;7.47;;;5.70;;
7899;SDS011;3995;50.856;4.404;2023-05-09T04:12:23;7.27;;;5.53;;
7899;SDS011;3995;50.856;4.404;2023-05-09T04:14:50;8.20;;;5.63;;
7899;SDS011;3995;50.856;4.404;2023-05-09T04:17:19;5.07;;;4.53;;
7899;SDS011;3995;50.856;4.404;2023-05-09T04:19:46;8.80;;;5.70;;
7899;SDS011;3995;50.856;4.404;2023-05-09T04:22:13;7.00;;;5.57;;
7899;SDS011;3995;50.856;4.404;2023-05-09T04:24:41;5.93;;;5.33;;
7899;SDS011;3995;50.856;4.404;2023-05-09T04:27:08;8.40;;;6.40;;
7899;SDS011;3995;50.856;4.404;2023-05-09T04:29:35;8.70;;;5.47;;
7899;SDS011;3995;50.856;4.404;2023-05-09T04:32:03;9.10;;;5.40;;
7899;SDS011;3995;50.856;4.404;2023-05-09T04:34:32;6.80;;;5.73;;
7899;SDS011;3995;50.856;4.404;2023-05-09T04:36:59;6.03;;;5.43;;
7899;SDS011;3995;50.856;4.404;2023-05-09T04:39:26;11.20;;;6.30;;
7899;SDS011;3995;50.856;4.404;2023-05-09T04:41:54;10.33;;;5.20;;
7899;SDS011;3995;50.856;4.404;2023-05-09T04:44:22;6.03;;;5.13;;
7899;SDS011;3995;50.856;4.404;2023-05-09T04:46:49;8.87;;;5.43;;
7899;SDS011;3995;50.856;4.404;2023-05-09T04:49:16;6.80;;;5.60;;
7899;SDS011;3995;50.856;4.404;2023-05-09T04:51:44;8.93;;;6.57;;
7899;SDS011;3995;50.856;4.404;2023-05-09T04:54:11;6.63;;;5.40;;
7899;SDS011;3995;50.856;4.404;2023-05-09T04:56:38;6.03;;;4.87;;
7899;SDS011;3995;50.856;4.404;2023-05-09T04:59:06;10.60;;;6.20;;
7899;SDS011;3995;50.856;4.404;2023-05-09T05:01:33;6.80;;;5.50;;
7899;SDS011;3995;50.856;4.404;2023-05-09T05:04:00;8.67;;;6.13;;
7899;SDS011;3995;50.856;4.404;2023-05-09T05:06:27;9.93;;;7.00;;
7899;SDS011;3995;50.856;4.404;2023-05-09T05:08:57;10.83;;;6.07;;
7899;SDS011;3995;50.856;4.404;2023-05-09T05:11:24;9.83;;;6.70;;
7899;SDS011;3995;50.856;4.404;2023-05-09T05:13:51;6.83;;;6.13;;
7899;SDS011;3995;50.856;4.404;2023-05-09T05:16:18;8.80;;;6.10;;
7899;SDS011;3995;50.856;4.404;2023-05-09T05:18:45;10.40;;;6.37;;
7899;SDS011;3995;50.856;4.404;2023-05-09T05:21:12;12.27;;;6.10;;
7899;SDS011;3995;50.856;4.404;2023-05-09T05:23:40;6.80;;;5.47;;
7899;SDS011;3995;50.856;4.404;2023-05-09T05:26:09;8.03;;;6.07;;
7899;SDS011;3995;50.856;4.404;2023-05-09T05:28:36;11.10;;;6.30;;
7899;SDS011;3995;50.856;4.404;2023-05-09T05:31:03;7.03;;;5.77;;
7899;SDS011;3995;50.856;4.404;2023-05-09T05:33:30;11.07;;;6.67;;
7899;SDS011;3995;50.856;4.404;2023-05-09T05:35:57;14.73;;;7.63;;
7899;SDS011;3995;50.856;4.404;2023-05-09T05:38:25;10.73;;;5.60;;
7899;SDS011;3995;50.856;4.404;2023-05-09T05:40:52;10.13;;;6.17;;
7899;SDS011;3995;50.856;4.404;2023-05-09T05:43:21;7.30;;;5.70;;
7899;SDS011;3995;50.856;4.404;2023-05-09T05:45:49;9.30;;;5.20;;
7899;SDS011;3995;50.856;4.404;2023-05-09T05:48:16;8.63;;;5.80;;
7899;SDS011;3995;50.856;4.404;2023-05-09T05:50:43;16.90;;;9.37;;
7899;SDS011;3995;50.856;4.404;2023-05-09T05:53:09;10.07;;;6.47;;
7899;SDS011;3995;50.856;4.404;2023-05-09T05:55:37;8.90;;;5.33;;
7899;SDS011;3995;50.856;4.404;2023-05-09T05:58:04;12.80;;;5.90;;
7899;SDS011;3995;50.856;4.404;2023-05-09T06:00:32;15.63;;;6.73;;
7899;SDS011;3995;50.856;4.404;2023-05-09T06:03:00;15.00;;;7.13;;
7899;SDS011;3995;50.856;4.404;2023-05-09T06:05:27;7.73;;;5.70;;
7899;SDS011;3995;50.856;4.404;2023-05-09T06:07:54;7.70;;;5.60;;
7899;SDS011;3995;50.856;4.404;2023-05-09T06:10:21;6.93;;;6.07;;
7899;SDS011;3995;50.856;4.404;2023-05-09T06:12:48;6.30;;;5.30;;
7899;SDS011;3995;50.856;4.404;2023-05-09T06:15:15;5.23;;;4.57;;
7899;SDS011;3995;50.856;4.404;2023-05-09T06:17:44;7.00;;;5.10;;
7899;SDS011;3995;50.856;4.404;2023-05-09T06:20:11;6.27;;;5.30;;
7899;SDS011;3995;50.856;4.404;2023-05-09T06:22:38;7.73;;;4.97;;
7899;SDS011;3995;50.856;4.404;2023-05-09T06:25:05;7.63;;;5.47;;
7899;SDS011;3995;50.856;4.404;2023-05-09T06:27:33;9.70;;;5.63;;
7899;SDS011;3995;50.856;4.404;2023-05-09T06:30:01;8.60;;;5.10;;
7899;SDS011;3995;50.856;4.404;2023-05-09T06:32:28;8.70;;;5.67;;
7899;SDS011;3995;50.856;4.404;2023-05-09T06:34:57;7.63;;;4.80;;
7899;SDS011;3995;50.856;4.404;2023-05-09T06:37:25;7.07;;;5.77;;
7899;SDS011;3995;50.856;4.404;2023-05-09T06:39:52;11.90;;;5.40;;
7899;SDS011;3995;50.856;4.404;2023-05-09T06:42:20;10.20;;;5.30;;
7899;SDS011;3995;50.856;4.404;2023-05-09T06:44:47;6.73;;;4.60;;
7899;SDS011;3995;50.856;4.404;2023-05-09T06:47:14;12.50;;;5.20;;
7899;SDS011;3995;50.856;4.404;2023-05-09T06:49:41;8.60;;;5.50;;
7899;SDS011;3995;50.856;4.404;2023-05-09T06:52:10;9.10;;;5.30;;
7899;SDS011;3995;50.856;4.404;2023-05-09T06:54:39;8.43;;;5.17;;
7899;SDS011;3995;50.856;4.404;2023-05-09T06:57:06;8.87;;;6.17;;
7899;SDS011;3995;50.856;4.404;2023-05-09T06:59:33;6.33;;;4.97;;
7899;SDS011;3995;50.856;4.404;2023-05-09T07:02:01;11.33;;;5.93;;
7899;SDS011;3995;50.856;4.404;2023-05-09T07:04:28;9.90;;;6.23;;
7899;SDS011;3995;50.856;4.404;2023-05-09T07:06:55;5.80;;;4.50;;
7899;SDS011;3995;50.856;4.404;2023-05-09T07:09:24;9.27;;;5.93;;
7899;SDS011;3995;50.856;4.404;2023-05-09T07:11:52;7.30;;;5.20;;
7899;SDS011;3995;50.856;4.404;2023-05-09T07:14:20;10.60;;;4.97;;
7899;SDS011;3995;50.856;4.404;2023-05-09T07:16:47;10.43;;;5.90;;
7899;SDS011;3995;50.856;4.404;2023-05-09T07:19:14;12.87;;;5.67;;
7899;SDS011;3995;50.856;4.404;2023-05-09T07:21:42;6.70;;;4.93;;
7899;SDS011;3995;50.856;4.404;2023-05-09T07:24:09;12.57;;;5.97;;
7899;SDS011;3995;50.856;4.404;2023-05-09T07:26:38;9.03;;;5.00;;
7899;SDS011;3995;50.856;4.404;2023-05-09T07:29:05;6.37;;;5.47;;
7899;SDS011;3995;50.856;4.404;2023-05-09T07:31:32;8.40;;;5.73;;
7899;SDS011;3995;50.856;4.404;2023-05-09T07:33:59;6.50;;;5.50;;
7899;SDS011;3995;50.856;4.404;2023-05-09T07:36:26;5.93;;;4.80;;
7899;SDS011;3995;50.856;4.404;2023-05-09T07:38:53;6.17;;;5.23;;
7899;SDS011;3995;50.856;4.404;2023-05-09T07:41:20;11.77;;;6.00;;
7899;SDS011;3995;50.856;4.404;2023-05-09T07:43:49;9.00;;;4.90;;
7899;SDS011;3995;50.856;4.404;2023-05-09T07:46:17;7.17;;;5.90;;
7899;SDS011;3995;50.856;4.404;2023-05-09T07:48:44;7.67;;;5.57;;
7899;SDS011;3995;50.856;4.404;2023-05-09T07:51:11;7.37;;;4.90;;
7899;SDS011;3995;50.856;4.404;2023-05-09T07:53:39;6.33;;;4.40;;
7899;SDS011;3995;50.856;4.404;2023-05-09T07:56:06;6.03;;;4.40;;
7899;SDS011;3995;50.856;4.404;2023-05-09T07:58:33;6.27;;;3.93;;
7899;SDS011;3995;50.856;4.404;2023-05-09T08:01:02;6.20;;;4.77;;
7899;SDS011;3995;50.856;4.404;2023-05-09T08:03:29;6.30;;;4.03;;
7899;SDS011;3995;50.856;4.404;2023-05-09T08:05:56;5.60;;;4.20;;
7899;SDS011;3995;50.856;4.404;2023-05-09T08:08:24;6.90;;;6.10;;
7899;SDS011;3995;50.856;4.404;2023-05-09T08:10:52;13.33;;;5.03;;
7899;SDS011;3995;50.856;4.404;2023-05-09T08:13:19;9.10;;;4.47;;
7899;SDS011;3995;50.856;4.404;2023-05-09T08:15:46;7.83;;;4.30;;
7899;SDS011;3995;50.856;4.404;2023-05-09T08:18:15;8.00;;;5.37;;
7899;SDS011;3995;50.856;4.404;2023-05-09T08:20:42;7.10;;;5.50;;
7899;SDS011;3995;50.856;4.404;2023-05-09T08:23:10;13.40;;;5.17;;
7899;SDS011;3995;50.856;4.404;2023-05-09T08:25:37;6.80;;;5.10;;
7899;SDS011;3995;50.856;4.404;2023-05-09T08:28:03;5.83;;;4.20;;
7899;SDS011;3995;50.856;4.404;2023-05-09T08:30:31;5.50;;;4.50;;
7899;SDS011;3995;50.856;4.404;2023-05-09T08:32:58;12.57;;;5.80;;
7899;SDS011;3995;50.856;4.404;2023-05-09T08:35:27;8.70;;;4.60;;
7899;SDS011;3995;50.856;4.404;2023-05-09T08:37:54;12.00;;;5.43;;
7899;SDS011;3995;50.856;4.404;2023-05-09T08:40:22;7.43;;;5.40;;
7899;SDS011;3995;50.856;4.404;2023-05-09T08:42:49;8.43;;;5.03;;
7899;SDS011;3995;50.856;4.404;2023-05-09T08:45:18;6.90;;;5.47;;
7899;SDS011;3995;50.856;4.404;2023-05-09T08:47:51;10.00;;;7.07;;
7899;SDS011;3995;50.856;4.404;2023-05-09T08:50:19;20.20;;;16.27;;
7899;SDS011;3995;50.856;4.404;2023-05-09T08:52:49;6.50;;;4.30;;
7899;SDS011;3995;50.856;4.404;2023-05-09T08:55:17;8.53;;;4.00;;
7899;SDS011;3995;50.856;4.404;2023-05-09T08:57:45;4.63;;;3.97;;
7899;SDS011;3995;50.856;4.404;2023-05-09T09:00:13;7.77;;;4.60;;
7899;SDS011;3995;50.856;4.404;2023-05-09T09:02:41;8.83;;;6.50;;
7899;SDS011;3995;50.856;4.404;2023-05-09T09:05:09;10.63;;;6.73;;
7899;SDS011;3995;50.856;4.404;2023-05-09T09:07:37;11.60;;;5.87;;
7899;SDS011;3995;50.856;4.404;2023-05-09T09:10:08;11.30;;;7.80;;
7899;SDS011;3995;50.856;4.404;2023-05-09T09:12:36;12.40;;;6.70;;
7899;SDS011;3995;50.856;4.404;2023-05-09T09:15:05;8.00;;;5.60;;
7899;SDS011;3995;50.856;4.404;2023-05-09T09:17:41;6.03;;;4.40;;
7899;SDS011;3995;50.856;4.404;2023-05-09T09:20:13;5.00;;;3.87;;
7899;SDS011;3995;50.856;4.404;2023-05-09T09:22:42;5.33;;;4.10;;
7899;SDS011;3995;50.856;4.404;2023-05-09T09:25:14;7.13;;;3.80;;
7899;SDS011;3995;50.856;4.404;2023-05-09T09:27:41;7.67;;;5.20;;
7899;SDS011;3995;50.856;4.404;2023-05-09T09:30:09;9.20;;;5.30;;
7899;SDS011;3995;50.856;4.404;2023-05-09T09:32:37;8.23;;;4.47;;
7899;SDS011;3995;50.856;4.404;2023-05-09T09:35:06;6.70;;;3.93;;
7899;SDS011;3995;50.856;4.404;2023-05-09T09:37:35;5.50;;;3.50;;
7899;SDS011;3995;50.856;4.404;2023-05-09T09:40:06;4.53;;;3.07;;
7899;SDS011;3995;50.856;4.404;2023-05-09T09:42:40;4.77;;;3.13;;
7899;SDS011;3995;50.856;4.404;2023-05-09T09:45:08;10.80;;;4.07;;
7899;SDS011;3995;50.856;4.404;2023-05-09T09:47:37;4.50;;;3.63;;
7899;SDS011;3995;50.856;4.404;2023-05-09T09:50:14;4.60;;;3.50;;
7899;SDS011;3995;50.856;4.404;2023-05-09T09:52:42;3.97;;;3.00;;
7899;SDS011;3995;50.856;4.404;2023-05-09T09:55:14;8.70;;;6.97;;
7899;SDS011;3995;50.856;4.404;2023-05-09T09:57:44;4.90;;;4.17;;
7899;SDS011;3995;50.856;4.404;2023-05-09T10:00:13;5.70;;;4.10;;
7899;SDS011;3995;50.856;4.404;2023-05-09T10:02:47;7.00;;;3.90;;
7899;SDS011;3995;50.856;4.404;2023-05-09T10:05:20;7.70;;;4.07;;
7899;SDS011;3995;50.856;4.404;2023-05-09T10:07:57;4.03;;;3.57;;
7899;SDS011;3995;50.856;4.404;2023-05-09T10:10:26;5.40;;;4.00;;
7899;SDS011;3995;50.856;4.404;2023-05-09T10:13:08;7.20;;;3.97;;
7899;SDS011;3995;50.856;4.404;2023-05-09T10:15:37;4.53;;;3.60;;
7899;SDS011;3995;50.856;4.404;2023-05-09T10:18:06;6.37;;;3.70;;
7899;SDS011;3995;50.856;4.404;2023-05-09T10:20:36;6.73;;;4.53;;
7899;SDS011;3995;50.856;4.404;2023-05-09T10:23:05;4.63;;;3.63;;
7899;SDS011;3995;50.856;4.404;2023-05-09T10:25:38;4.50;;;3.97;;
7899;SDS011;3995;50.856;4.404;2023-05-09T10:28:12;9.87;;;8.90;;
7899;SDS011;3995;50.856;4.404;2023-05-09T10:30:46;5.03;;;4.50;;
7899;SDS011;3995;50.856;4.404;2023-05-09T10:33:24;6.40;;;4.90;;
7899;SDS011;3995;50.856;4.404;2023-05-09T10:35:59;16.60;;;10.77;;
7899;SDS011;3995;50.856;4.404;2023-05-09T10:38:28;9.60;;;4.80;;
7899;SDS011;3995;50.856;4.404;2023-05-09T10:40:56;11.20;;;6.90;;
7899;SDS011;3995;50.856;4.404;2023-05-09T10:43:26;7.80;;;4.50;;
7899;SDS011;3995;50.856;4.404;2023-05-09T10:45:58;8.80;;;7.20;;
7899;SDS011;3995;50.856;4.404;2023-05-09T10:48:26;6.40;;;4.00;;
7899;SDS011;3995;50.856;4.404;2023-05-09T10:50:54;8.90;;;3.63;;
7899;SDS011;3995;50.856;4.404;2023-05-09T10:53:21;5.23;;;3.53;;
7899;SDS011;3995;50.856;4.404;2023-05-09T10:55:50;7.70;;;5.70;;
7899;SDS011;3995;50.856;4.404;2023-05-09T11:01:04;9.53;;;4.17;;
7899;SDS011;3995;50.856;4.404;2023-05-09T11:09:25;10.00;;;8.00;;
7899;SDS011;3995;50.856;4.404;2023-05-09T11:11:58;9.60;;;7.13;;
7899;SDS011;3995;50.856;4.404;2023-05-09T11:14:37;5.43;;;3.53;;
7899;SDS011;3995;50.856;4.404;2023-05-09T11:17:10;7.63;;;3.40;;
7899;SDS011;3995;50.856;4.404;2023-05-09T11:19:58;7.67;;;3.40;;
7899;SDS011;3995;50.856;4.404;2023-05-09T11:22:27;7.20;;;3.23;;
7899;SDS011;3995;50.856;4.404;2023-05-09T11:25:01;6.63;;;4.73;;
7899;SDS011;3995;50.856;4.404;2023-05-09T11:27:37;6.63;;;3.70;;
7899;SDS011;3995;50.856;4.404;2023-05-09T11:30:09;10.67;;;6.33;;
7899;SDS011;3995;50.856;4.404;2023-05-09T11:32:42;8.23;;;5.60;;
7899;SDS011;3995;50.856;4.404;2023-05-09T11:35:12;4.93;;;3.07;;
7899;SDS011;3995;50.856;4.404;2023-05-09T11:37:45;5.40;;;2.80;;
7899;SDS011;3995;50.856;4.404;2023-05-09T11:40:15;4.40;;;2.80;;
7899;SDS011;3995;50.856;4.404;2023-05-09T11:42:44;5.30;;;3.40;;
7899;SDS011;3995;50.856;4.404;2023-05-09T11:45:15;6.27;;;2.80;;
7899;SDS011;3995;50.856;4.404;2023-05-09T11:47:44;4.37;;;2.43;;
7899;SDS011;3995;50.856;4.404;2023-05-09T11:50:12;5.57;;;3.20;;
7899;SDS011;3995;50.856;4.404;2023-05-09T11:52:41;3.20;;;2.50;;
7899;SDS011;3995;50.856;4.404;2023-05-09T11:55:09;3.90;;;2.57;;
7899;SDS011;3995;50.856;4.404;2023-05-09T11:57:38;4.07;;;2.60;;
7899;SDS011;3995;50.856;4.404;2023-05-09T12:00:09;7.60;;;2.87;;
7899;SDS011;3995;50.856;4.404;2023-05-09T12:02:43;3.80;;;2.70;;
7899;SDS011;3995;50.856;4.404;2023-05-09T12:05:12;4.90;;;2.73;;
7899;SDS011;3995;50.856;4.404;2023-05-09T12:07:41;3.63;;;2.70;;
7899;SDS011;3995;50.856;4.404;2023-05-09T12:10:09;4.17;;;2.47;;
7899;SDS011;3995;50.856;4.404;2023-05-09T12:12:43;3.57;;;3.10;;
7899;SDS011;3995;50.856;4.404;2023-05-09T12:15:12;2.77;;;2.40;;
7899;SDS011;3995;50.856;4.404;2023-05-09T12:17:41;3.70;;;2.67;;
7899;SDS011;3995;50.856;4.404;2023-05-09T12:20:11;2.83;;;2.53;;
7899;SDS011;3995;50.856;4.404;2023-05-09T12:22:41;4.10;;;2.17;;
7899;SDS011;3995;50.856;4.404;2023-05-09T12:25:12;2.60;;;1.83;;
7899;SDS011;3995;50.856;4.404;2023-05-09T12:27:43;8.23;;;2.10;;
7899;SDS011;3995;50.856;4.404;2023-05-09T12:30:11;2.40;;;1.80;;
7899;SDS011;3995;50.856;4.404;2023-05-09T12:32:40;3.67;;;2.40;;
7899;SDS011;3995;50.856;4.404;2023-05-09T12:35:08;2.87;;;2.30;;
7899;SDS011;3995;50.856;4.404;2023-05-09T12:37:38;7.70;;;2.10;;
7899;SDS011;3995;50.856;4.404;2023-05-09T12:40:07;7.80;;;2.20;;
7899;SDS011;3995;50.856;4.404;2023-05-09T12:42:37;4.57;;;2.00;;
7899;SDS011;3995;50.856;4.404;2023-05-09T12:45:06;4.97;;;1.60;;
7899;SDS011;3995;50.856;4.404;2023-05-09T12:47:34;7.30;;;2.10;;
7899;SDS011;3995;50.856;4.404;2023-05-09T12:50:04;2.70;;;1.50;;
7899;SDS011;3995;50.856;4.404;2023-05-09T12:52:36;4.17;;;2.10;;
7899;SDS011;3995;50.856;4.404;2023-05-09T12:55:04;1.70;;;1.30;;
7899;SDS011;3995;50.856;4.404;2023-05-09T12:57:33;3.40;;;1.50;;
7899;SDS011;3995;50.856;4.404;2023-05-09T13:00:01;4.90;;;1.97;;
7899;SDS011;3995;50.856;4.404;2023-05-09T13:02:35;2.17;;;1.70;;
7899;SDS011;3995;50.856;4.404;2023-05-09T13:05:04;4.97;;;2.13;;
7899;SDS011;3995;50.856;4.404;2023-05-09T13:07:39;4.23;;;2.17;;
7899;SDS011;3995;50.856;4.404;2023-05-09T13:10:09;3.40;;;1.70;;
7899;SDS011;3995;50.856;4.404;2023-05-09T13:12:40;2.80;;;2.10;;
7899;SDS011;3995;50.856;4.404;2023-05-09T13:15:12;2.73;;;1.60;;
7899;SDS011;3995;50.856;4.404;2023-05-09T13:17:40;3.97;;;1.70;;
7899;SDS011;3995;50.856;4.404;2023-05-09T13:20:08;3.67;;;1.70;;
7899;SDS011;3995;50.856;4.404;2023-05-09T13:22:35;3.00;;;1.73;;
7899;SDS011;3995;50.856;4.404;2023-05-09T13:25:05;4.03;;;2.23;;
7899;SDS011;3995;50.856;4.404;2023-05-09T13:27:33;4.07;;;1.93;;
7899;SDS011;3995;50.856;4.404;2023-05-09T13:30:01;2.63;;;1.70;;
7899;SDS011;3995;50.856;4.404;2023-05-09T13:32:31;2.50;;;1.80;;
7899;SDS011;3995;50.856;4.404;2023-05-09T13:35:00;5.07;;;2.23;;
7899;SDS011;3995;50.856;4.404;2023-05-09T13:37:28;3.20;;;1.80;;
7899;SDS011;3995;50.856;4.404;2023-05-09T13:39:56;4.57;;;1.83;;
7899;SDS011;3995;50.856;4.404;2023-05-09T13:42:26;2.97;;;1.80;;
7899;SDS011;3995;50.856;4.404;2023-05-09T13:44:54;2.63;;;1.53;;
7899;SDS011;3995;50.856;4.404;2023-05-09T13:47:21;8.13;;;1.93;;
7899;SDS011;3995;50.856;4.404;2023-05-09T13:49:49;2.70;;;1.80;;
7899;SDS011;3995;50.856;4.404;2023-05-09T13:52:17;2.43;;;1.87;;
7899;SDS011;3995;50.856;4.404;2023-05-09T13:54:45;3.07;;;1.90;;
7899;SDS011;3995;50.856;4.404;2023-05-09T13:57:13;1.97;;;1.40;;
7899;SDS011;3995;50.856;4.404;2023-05-09T13:59:43;1.87;;;1.67;;
7899;SDS011;3995;50.856;4.404;2023-05-09T14:02:10;2.03;;;1.63;;
7899;SDS011;3995;50.856;4.404;2023-05-09T14:04:38;7.70;;;1.77;;
7899;SDS011;3995;50.856;4.404;2023-05-09T14:07:06;1.67;;;1.40;;
7899;SDS011;3995;50.856;4.404;2023-05-09T14:09:35;2.00;;;1.60;;
7899;SDS011;3995;50.856;4.404;2023-05-09T14:12:04;3.40;;;1.80;;
7899;SDS011;3995;50.856;4.404;2023-05-09T14:14:32;3.40;;;1.47;;
7899;SDS011;3995;50.856;4.404;2023-05-09T14:17:01;2.40;;;1.53;;
7899;SDS011;3995;50.856;4.404;2023-05-09T14:19:28;2.20;;;1.90;;
7899;SDS011;3995;50.856;4.404;2023-05-09T14:21:56;2.70;;;1.43;;
7899;SDS011;3995;50.856;4.404;2023-05-09T14:24:23;3.37;;;1.47;;
7899;SDS011;3995;50.856;4.404;2023-05-09T14:26:54;4.80;;;1.47;;
7899;SDS011;3995;50.856;4.404;2023-05-09T14:29:22;2.27;;;1.50;;
7899;SDS011;3995;50.856;4.404;2023-05-09T14:31:49;6.93;;;1.53;;
7899;SDS011;3995;50.856;4.404;2023-05-09T14:34:18;2.87;;;1.60;;
7899;SDS011;3995;50.856;4.404;2023-05-09T14:36:45;2.43;;;1.70;;
7899;SDS011;3995;50.856;4.404;2023-05-09T14:39:14;2.40;;;1.87;;
7899;SDS011;3995;50.856;4.404;2023-05-09T14:41:42;3.30;;;1.40;;
7899;SDS011;3995;50.856;4.404;2023-05-09T14:44:11;1.70;;;1.40;;
7899;SDS011;3995;50.856;4.404;2023-05-09T14:46:39;1.77;;;1.50;;
7899;SDS011;3995;50.856;4.404;2023-05-09T14:49:06;2.70;;;1.80;;
7899;SDS011;3995;50.856;4.404;2023-05-09T14:51:36;4.20;;;1.70;;
7899;SDS011;3995;50.856;4.404;2023-05-09T14:54:04;2.83;;;1.67;;
7899;SDS011;3995;50.856;4.404;2023-05-09T14:56:31;2.00;;;1.40;;
7899;SDS011;3995;50.856;4.404;2023-05-09T14:58:59;2.10;;;1.60;;
7899;SDS011;3995;50.856;4.404;2023-05-09T15:01:27;1.93;;;1.47;;
7899;SDS011;3995;50.856;4.404;2023-05-09T15:03:55;3.00;;;1.93;;
7899;SDS011;3995;50.856;4.404;2023-05-09T15:06:23;2.97;;;1.80;;
7899;SDS011;3995;50.856;4.404;2023-05-09T15:08:52;2.93;;;2.40;;
7899;SDS011;3995;50.856;4.404;2023-05-09T15:11:20;2.10;;;1.70;;
7899;SDS011;3995;50.856;4.404;2023-05-09T15:13:47;2.70;;;1.70;;
7899;SDS011;3995;50.856;4.404;2023-05-09T15:16:14;5.30;;;4.07;;
7899;SDS011;3995;50.856;4.404;2023-05-09T15:18:41;4.90;;;1.80;;
7899;SDS011;3995;50.856;4.404;2023-05-09T15:21:10;3.10;;;1.43;;
7899;SDS011;3995;50.856;4.404;2023-05-09T15:23:37;2.23;;;1.57;;
7899;SDS011;3995;50.856;4.404;2023-05-09T15:26:07;2.60;;;1.70;;
7899;SDS011;3995;50.856;4.404;2023-05-09T15:28:36;2.20;;;1.67;;
7899;SDS011;3995;50.856;4.404;2023-05-09T15:31:04;1.40;;;1.27;;